sensor_id;sensor_type;location;lat;lon;timestamp;pressure;altitude;pressure_sealevel;temperature;humidity
77023;BME280;65952;51.440;-2.054;2023-08-21T00:02:19;101054.97;;;18.33;71.79
77023;BME280;65952;51.440;-2.054;2023-08-21T00:04:45;101053.72;;;18.29;71.99
77023;BME280;65952;51.440;-2.054;2023-08-21T00:07:10;101061.88;;;18.35;71.73
77023;BME280;65952;51.440;-2.054;2023-08-21T00:09:36;101057.50;;;18.34;71.89
77023;BME280;65952;51.440;-2.054;2023-08-21T00:12:02;101053.94;;;18.34;72.08
77023;BME280;65952;51.440;-2.054;2023-08-21T00:14:27;101056.66;;;18.34;72.19
77023;BME280;65952;51.440;-2.054;2023-08-21T00:16:53;101057.25;;;18.29;72.52
77023;BME280;65952;51.440;-2.054;2023-08-21T00:19:18;101060.19;;;18.28;72.56
77023;BME280;65952;51.440;-2.054;2023-08-21T00:21:43;101055.78;;;18.27;72.38
77023;BME280;65952;51.440;-2.054;2023-08-21T00:24:09;101055.78;;;18.27;72.44
77023;BME280;65952;51.440;-2.054;2023-08-21T00:26:34;101052.41;;;18.25;72.41
77023;BME280;65952;51.440;-2.054;2023-08-21T00:28:59;101054.09;;;18.26;72.74
77023;BME280;65952;51.440;-2.054;2023-08-21T00:31:25;101050.72;;;18.24;72.95
77023;BME280;65952;51.440;-2.054;2023-08-21T00:33:50;101055.38;;;18.30;72.85
77023;BME280;65952;51.440;-2.054;2023-08-21T00:36:15;101050.56;;;18.32;72.62
77023;BME280;65952;51.440;-2.054;2023-08-21T00:38:41;101050.38;;;18.33;72.62
77023;BME280;65952;51.440;-2.054;2023-08-21T00:41:06;101051.59;;;18.31;72.25
77023;BME280;65952;51.440;-2.054;2023-08-21T00:43:32;101055.34;;;18.23;72.62
77023;BME280;65952;51.440;-2.054;2023-08-21T00:45:57;101055.13;;;18.25;72.47
77023;BME280;65952;51.440;-2.054;2023-08-21T00:48:22;101057.41;;;18.21;72.42
77023;BME280;65952;51.440;-2.054;2023-08-21T00:50:48;101054.66;;;18.14;72.64
77023;BME280;65952;51.440;-2.054;2023-08-21T00:53:14;101047.16;;;18.16;72.66
77023;BME280;65952;51.440;-2.054;2023-08-21T00:55:40;101045.47;;;18.15;72.86
77023;BME280;65952;51.440;-2.054;2023-08-21T00:58:05;101051.94;;;18.14;72.74
77023;BME280;65952;51.440;-2.054;2023-08-21T01:00:31;101047.75;;;18.12;73.06
77023;BME280;65952;51.440;-2.054;2023-08-21T01:02:56;101046.63;;;17.99;73.48
77023;BME280;65952;51.440;-2.054;2023-08-21T01:05:22;101042.63;;;17.95;73.54
77023;BME280;65952;51.440;-2.054;2023-08-21T01:07:53;101050.78;;;17.95;73.45
77023;BME280;65952;51.440;-2.054;2023-08-21T01:10:39;101050.06;;;17.86;73.71
77023;BME280;65952;51.440;-2.054;2023-08-21T01:13:24;101045.00;;;17.83;73.66
77023;BME280;65952;51.440;-2.054;2023-08-21T01:15:54;101046.91;;;17.83;73.74
77023;BME280;65952;51.440;-2.054;2023-08-21T01:18:21;101039.53;;;17.77;73.83
77023;BME280;65952;51.440;-2.054;2023-08-21T01:20:47;101053.53;;;17.74;73.87
77023;BME280;65952;51.440;-2.054;2023-08-21T01:25:58;101048.69;;;17.69;73.97
77023;BME280;65952;51.440;-2.054;2023-08-21T01:28:23;101044.88;;;17.63;74.28
77023;BME280;65952;51.440;-2.054;2023-08-21T01:30:50;101041.31;;;17.63;74.15
77023;BME280;65952;51.440;-2.054;2023-08-21T01:33:18;101044.63;;;17.58;74.42
77023;BME280;65952;51.440;-2.054;2023-08-21T01:35:44;101041.91;;;17.58;74.40
77023;BME280;65952;51.440;-2.054;2023-08-21T01:38:10;101039.19;;;17.58;74.58
77023;BME280;65952;51.440;-2.054;2023-08-21T01:40:35;101037.91;;;17.54;74.99
77023;BME280;65952;51.440;-2.054;2023-08-21T01:43:01;101038.38;;;17.58;74.65
77023;BME280;65952;51.440;-2.054;2023-08-21T01:45:26;101037.72;;;17.55;75.20
77023;BME280;65952;51.440;-2.054;2023-08-21T01:47:51;101033.13;;;17.56;75.30
77023;BME280;65952;51.440;-2.054;2023-08-21T01:50:17;101035.00;;;17.55;75.15
77023;BME280;65952;51.440;-2.054;2023-08-21T01:52:42;101035.66;;;17.58;75.02
77023;BME280;65952;51.440;-2.054;2023-08-21T01:55:08;101032.69;;;17.52;75.53
77023;BME280;65952;51.440;-2.054;2023-08-21T01:57:33;101040.41;;;17.55;75.38
77023;BME280;65952;51.440;-2.054;2023-08-21T01:59:59;101033.59;;;17.60;75.03
77023;BME280;65952;51.440;-2.054;2023-08-21T02:02:24;101036.47;;;17.58;75.10
77023;BME280;65952;51.440;-2.054;2023-08-21T02:04:50;101037.31;;;17.59;75.06
77023;BME280;65952;51.440;-2.054;2023-08-21T02:07:15;101041.44;;;17.54;75.25
77023;BME280;65952;51.440;-2.054;2023-08-21T02:09:40;101052.13;;;17.56;75.15
77023;BME280;65952;51.440;-2.054;2023-08-21T02:12:06;101047.34;;;17.58;75.23
77023;BME280;65952;51.440;-2.054;2023-08-21T02:14:31;101048.63;;;17.62;75.36
77023;BME280;65952;51.440;-2.054;2023-08-21T02:16:57;101043.84;;;17.64;75.12
77023;BME280;65952;51.440;-2.054;2023-08-21T02:19:22;101051.34;;;17.62;75.14
77023;BME280;65952;51.440;-2.054;2023-08-21T02:21:47;101050.28;;;17.63;75.21
77023;BME280;65952;51.440;-2.054;2023-08-21T02:24:13;101045.16;;;17.68;74.77
77023;BME280;65952;51.440;-2.054;2023-08-21T02:26:38;101044.03;;;17.63;74.96
77023;BME280;65952;51.440;-2.054;2023-08-21T02:29:03;101053.88;;;17.64;74.93
77023;BME280;65952;51.440;-2.054;2023-08-21T02:31:29;101044.28;;;17.68;74.94
77023;BME280;65952;51.440;-2.054;2023-08-21T02:33:54;101053.28;;;17.68;74.94
77023;BME280;65952;51.440;-2.054;2023-08-21T02:36:20;101040.91;;;17.66;75.20
77023;BME280;65952;51.440;-2.054;2023-08-21T02:38:45;101056.59;;;17.64;75.01
77023;BME280;65952;51.440;-2.054;2023-08-21T02:41:11;101051.97;;;17.64;75.22
77023;BME280;65952;51.440;-2.054;2023-08-21T02:43:36;101059.91;;;17.66;75.29
77023;BME280;65952;51.440;-2.054;2023-08-21T02:46:01;101059.09;;;17.65;75.16
77023;BME280;65952;51.440;-2.054;2023-08-21T02:48:27;101063.09;;;17.69;74.97
77023;BME280;65952;51.440;-2.054;2023-08-21T02:50:52;101059.78;;;17.74;74.71
77023;BME280;65952;51.440;-2.054;2023-08-21T02:53:17;101054.34;;;17.74;74.37
77023;BME280;65952;51.440;-2.054;2023-08-21T02:55:43;101054.13;;;17.69;74.63
77023;BME280;65952;51.440;-2.054;2023-08-21T02:58:08;101060.31;;;17.63;74.64
77023;BME280;65952;51.440;-2.054;2023-08-21T03:00:34;101054.66;;;17.58;74.68
77023;BME280;65952;51.440;-2.054;2023-08-21T03:02:59;101058.81;;;17.53;74.99
77023;BME280;65952;51.440;-2.054;2023-08-21T03:05:25;101052.72;;;17.51;74.76
77023;BME280;65952;51.440;-2.054;2023-08-21T03:07:50;101055.84;;;17.48;74.91
77023;BME280;65952;51.440;-2.054;2023-08-21T03:10:15;101056.88;;;17.47;75.04
77023;BME280;65952;51.440;-2.054;2023-08-21T03:12:41;101058.72;;;17.47;75.07
77023;BME280;65952;51.440;-2.054;2023-08-21T03:15:06;101059.38;;;17.49;74.91
77023;BME280;65952;51.440;-2.054;2023-08-21T03:17:32;101056.72;;;17.55;74.76
77023;BME280;65952;51.440;-2.054;2023-08-21T03:19:58;101059.19;;;17.50;74.74
77023;BME280;65952;51.440;-2.054;2023-08-21T03:22:23;101055.63;;;17.50;74.67
77023;BME280;65952;51.440;-2.054;2023-08-21T03:24:48;101061.28;;;17.48;74.57
77023;BME280;65952;51.440;-2.054;2023-08-21T03:27:17;101061.06;;;17.50;75.06
77023;BME280;65952;51.440;-2.054;2023-08-21T03:29:43;101056.25;;;17.52;74.80
77023;BME280;65952;51.440;-2.054;2023-08-21T03:32:17;101055.31;;;17.60;74.75
77023;BME280;65952;51.440;-2.054;2023-08-21T03:34:43;101056.38;;;17.65;74.71
77023;BME280;65952;51.440;-2.054;2023-08-21T03:37:09;101046.09;;;17.61;75.38
77023;BME280;65952;51.440;-2.054;2023-08-21T03:39:34;101060.38;;;17.69;74.93
77023;BME280;65952;51.440;-2.054;2023-08-21T03:42:00;101053.09;;;17.70;74.89
77023;BME280;65952;51.440;-2.054;2023-08-21T03:44:25;101050.41;;;17.77;74.65
77023;BME280;65952;51.440;-2.054;2023-08-21T03:46:50;101044.97;;;17.77;74.94
77023;BME280;65952;51.440;-2.054;2023-08-21T03:49:16;101060.91;;;17.80;74.83
77023;BME280;65952;51.440;-2.054;2023-08-21T03:51:41;101057.75;;;17.83;74.75
77023;BME280;65952;51.440;-2.054;2023-08-21T03:54:06;101053.38;;;17.82;74.70
77023;BME280;65952;51.440;-2.054;2023-08-21T03:56:32;101063.44;;;17.88;74.80
77023;BME280;65952;51.440;-2.054;2023-08-21T03:58:57;101061.16;;;17.92;74.34
77023;BME280;65952;51.440;-2.054;2023-08-21T04:01:22;101045.91;;;17.91;74.46
77023;BME280;65952;51.440;-2.054;2023-08-21T04:03:48;101053.28;;;17.97;74.11
77023;BME280;65952;51.440;-2.054;2023-08-21T04:06:13;101045.34;;;17.95;74.34
77023;BME280;65952;51.440;-2.054;2023-08-21T04:08:39;101042.63;;;17.95;74.29
77023;BME280;65952;51.440;-2.054;2023-08-21T04:11:06;101039.50;;;17.98;74.03
77023;BME280;65952;51.440;-2.054;2023-08-21T04:13:31;101039.94;;;18.02;73.79
77023;BME280;65952;51.440;-2.054;2023-08-21T04:15:57;101034.94;;;17.99;73.95
77023;BME280;65952;51.440;-2.054;2023-08-21T04:18:22;101034.94;;;17.99;73.73
77023;BME280;65952;51.440;-2.054;2023-08-21T04:20:48;101034.50;;;18.02;73.48
77023;BME280;65952;51.440;-2.054;2023-08-21T04:23:14;101030.75;;;18.03;73.51
77023;BME280;65952;51.440;-2.054;2023-08-21T04:25:40;101032.25;;;18.06;72.87
77023;BME280;65952;51.440;-2.054;2023-08-21T04:28:05;101036.78;;;17.98;73.42
77023;BME280;65952;51.440;-2.054;2023-08-21T04:30:32;101038.03;;;17.96;73.30
77023;BME280;65952;51.440;-2.054;2023-08-21T04:32:58;101048.41;;;17.92;73.44
77023;BME280;65952;51.440;-2.054;2023-08-21T04:35:24;101044.88;;;17.92;73.30
77023;BME280;65952;51.440;-2.054;2023-08-21T04:37:49;101051.34;;;17.91;73.18
77023;BME280;65952;51.440;-2.054;2023-08-21T04:40:15;101053.22;;;17.90;73.45
77023;BME280;65952;51.440;-2.054;2023-08-21T04:42:42;101052.19;;;17.91;73.05
77023;BME280;65952;51.440;-2.054;2023-08-21T04:45:09;101059.97;;;17.94;72.87
77023;BME280;65952;51.440;-2.054;2023-08-21T04:47:35;101065.56;;;17.93;72.61
77023;BME280;65952;51.440;-2.054;2023-08-21T04:50:00;101076.66;;;17.91;72.21
77023;BME280;65952;51.440;-2.054;2023-08-21T04:52:25;101065.41;;;17.94;72.30
77023;BME280;65952;51.440;-2.054;2023-08-21T04:54:51;101067.91;;;17.96;72.20
77023;BME280;65952;51.440;-2.054;2023-08-21T04:57:17;101069.22;;;18.00;71.92
77023;BME280;65952;51.440;-2.054;2023-08-21T04:59:43;101069.00;;;18.01;72.14
77023;BME280;65952;51.440;-2.054;2023-08-21T05:02:09;101071.53;;;18.03;71.91
77023;BME280;65952;51.440;-2.054;2023-08-21T05:04:36;101067.78;;;18.04;71.69
77023;BME280;65952;51.440;-2.054;2023-08-21T05:07:01;101073.81;;;18.06;71.80
77023;BME280;65952;51.440;-2.054;2023-08-21T05:09:27;101067.59;;;18.12;71.21
77023;BME280;65952;51.440;-2.054;2023-08-21T05:11:53;101070.94;;;18.08;70.92
77023;BME280;65952;51.440;-2.054;2023-08-21T05:14:19;101069.69;;;18.10;70.58
77023;BME280;65952;51.440;-2.054;2023-08-21T05:16:45;101064.25;;;18.10;70.62
77023;BME280;65952;51.440;-2.054;2023-08-21T05:19:10;101062.56;;;18.09;70.38
77023;BME280;65952;51.440;-2.054;2023-08-21T05:21:36;101057.72;;;18.05;70.46
77023;BME280;65952;51.440;-2.054;2023-08-21T05:24:01;101064.41;;;18.02;70.37
77023;BME280;65952;51.440;-2.054;2023-08-21T05:26:27;101060.63;;;17.96;70.57
77023;BME280;65952;51.440;-2.054;2023-08-21T05:28:52;101062.47;;;17.96;70.60
77023;BME280;65952;51.440;-2.054;2023-08-21T05:31:18;101066.59;;;17.92;70.47
77023;BME280;65952;51.440;-2.054;2023-08-21T05:33:43;101067.84;;;17.89;70.50
77023;BME280;65952;51.440;-2.054;2023-08-21T05:36:08;101066.16;;;17.88;70.59
77023;BME280;65952;51.440;-2.054;2023-08-21T05:38:34;101064.03;;;17.83;70.55
77023;BME280;65952;51.440;-2.054;2023-08-21T05:40:59;101068.44;;;17.84;70.75
77023;BME280;65952;51.440;-2.054;2023-08-21T05:43:26;101077.59;;;17.83;70.80
77023;BME280;65952;51.440;-2.054;2023-08-21T05:45:51;101083.03;;;17.83;71.06
77023;BME280;65952;51.440;-2.054;2023-08-21T05:48:16;101080.97;;;17.85;70.77
77023;BME280;65952;51.440;-2.054;2023-08-21T05:50:42;101077.44;;;17.85;70.81
77023;BME280;65952;51.440;-2.054;2023-08-21T05:53:08;101078.25;;;17.85;70.64
77023;BME280;65952;51.440;-2.054;2023-08-21T05:55:33;101088.13;;;17.93;70.70
77023;BME280;65952;51.440;-2.054;2023-08-21T05:58:01;101082.16;;;17.98;70.49
77023;BME280;65952;51.440;-2.054;2023-08-21T06:00:27;101083.81;;;17.99;70.57
77023;BME280;65952;51.440;-2.054;2023-08-21T06:02:52;101077.41;;;18.07;70.63
77023;BME280;65952;51.440;-2.054;2023-08-21T06:05:17;101083.28;;;18.10;70.62
77023;BME280;65952;51.440;-2.054;2023-08-21T06:07:43;101083.09;;;18.18;70.28
77023;BME280;65952;51.440;-2.054;2023-08-21T06:10:09;101091.50;;;18.24;70.50
77023;BME280;65952;51.440;-2.054;2023-08-21T06:12:41;101080.47;;;18.32;70.39
77023;BME280;65952;51.440;-2.054;2023-08-21T06:15:07;101078.63;;;18.39;70.11
77023;BME280;65952;51.440;-2.054;2023-08-21T06:17:34;101074.69;;;18.48;70.03
77023;BME280;65952;51.440;-2.054;2023-08-21T06:19:59;101077.66;;;18.54;69.81
77023;BME280;65952;51.440;-2.054;2023-08-21T06:22:24;101080.81;;;18.64;69.66
77023;BME280;65952;51.440;-2.054;2023-08-21T06:24:50;101077.53;;;18.75;69.38
77023;BME280;65952;51.440;-2.054;2023-08-21T06:27:15;101077.00;;;19.00;68.56
77023;BME280;65952;51.440;-2.054;2023-08-21T06:29:41;101079.78;;;19.20;67.73
77023;BME280;65952;51.440;-2.054;2023-08-21T06:32:06;101073.09;;;19.29;67.24
77023;BME280;65952;51.440;-2.054;2023-08-21T06:34:31;101084.81;;;19.37;66.51
77023;BME280;65952;51.440;-2.054;2023-08-21T06:36:57;101090.47;;;19.22;66.66
77023;BME280;65952;51.440;-2.054;2023-08-21T06:39:22;101081.88;;;19.38;66.25
77023;BME280;65952;51.440;-2.054;2023-08-21T06:41:47;101083.78;;;19.44;66.13
77023;BME280;65952;51.440;-2.054;2023-08-21T06:44:13;101093.84;;;19.51;65.58
77023;BME280;65952;51.440;-2.054;2023-08-21T06:46:38;101092.63;;;19.60;65.49
77023;BME280;65952;51.440;-2.054;2023-08-21T06:49:03;101091.34;;;20.23;64.54
77023;BME280;65952;51.440;-2.054;2023-08-21T06:51:29;101086.03;;;21.32;61.38
77023;BME280;65952;51.440;-2.054;2023-08-21T06:53:54;101090.25;;;22.85;56.47
77023;BME280;65952;51.440;-2.054;2023-08-21T06:56:20;101092.25;;;24.57;52.41
77023;BME280;65952;51.440;-2.054;2023-08-21T06:58:45;101079.66;;;26.33;46.10
77023;BME280;65952;51.440;-2.054;2023-08-21T07:01:10;101076.97;;;27.37;44.37
77023;BME280;65952;51.440;-2.054;2023-08-21T07:03:36;101088.41;;;28.27;40.98
77023;BME280;65952;51.440;-2.054;2023-08-21T07:06:01;101098.06;;;28.93;40.99
77023;BME280;65952;51.440;-2.054;2023-08-21T07:08:28;101096.34;;;28.13;40.59
77023;BME280;65952;51.440;-2.054;2023-08-21T07:10:54;101089.31;;;27.30;42.55
77023;BME280;65952;51.440;-2.054;2023-08-21T07:13:20;101096.47;;;27.31;43.48
77023;BME280;65952;51.440;-2.054;2023-08-21T07:15:46;101091.50;;;28.41;41.73
77023;BME280;65952;51.440;-2.054;2023-08-21T07:18:11;101099.28;;;29.54;39.21
77023;BME280;65952;51.440;-2.054;2023-08-21T07:20:37;101096.19;;;30.12;37.40
77023;BME280;65952;51.440;-2.054;2023-08-21T07:23:03;101101.47;;;29.62;38.23
77023;BME280;65952;51.440;-2.054;2023-08-21T07:25:28;101106.03;;;28.74;39.49
77023;BME280;65952;51.440;-2.054;2023-08-21T07:27:54;101103.19;;;27.72;41.74
77023;BME280;65952;51.440;-2.054;2023-08-21T07:30:20;101104.13;;;27.23;42.87
77023;BME280;65952;51.440;-2.054;2023-08-21T07:32:46;101099.53;;;27.34;43.19
77023;BME280;65952;51.440;-2.054;2023-08-21T07:35:12;101098.97;;;27.05;43.06
77023;BME280;65952;51.440;-2.054;2023-08-21T07:37:37;101106.38;;;25.99;44.83
77023;BME280;65952;51.440;-2.054;2023-08-21T07:40:04;101116.34;;;25.08;47.42
77023;BME280;65952;51.440;-2.054;2023-08-21T07:42:30;101113.16;;;24.58;48.53
77023;BME280;65952;51.440;-2.054;2023-08-21T07:44:55;101113.22;;;23.99;50.78
77023;BME280;65952;51.440;-2.054;2023-08-21T07:47:21;101113.94;;;23.52;51.81
77023;BME280;65952;51.440;-2.054;2023-08-21T07:49:46;101109.38;;;23.22;52.79
77023;BME280;65952;51.440;-2.054;2023-08-21T07:52:11;101111.84;;;22.93;53.31
77023;BME280;65952;51.440;-2.054;2023-08-21T07:54:37;101111.38;;;22.78;54.36
77023;BME280;65952;51.440;-2.054;2023-08-21T07:57:02;101100.66;;;22.76;54.51
77023;BME280;65952;51.440;-2.054;2023-08-21T07:59:29;101102.28;;;22.65;54.70
77023;BME280;65952;51.440;-2.054;2023-08-21T08:01:54;101105.38;;;22.69;55.65
77023;BME280;65952;51.440;-2.054;2023-08-21T08:04:19;101110.56;;;22.59;55.17
77023;BME280;65952;51.440;-2.054;2023-08-21T08:06:45;101100.00;;;22.44;55.57
77023;BME280;65952;51.440;-2.054;2023-08-21T08:09:11;101097.28;;;22.44;55.89
77023;BME280;65952;51.440;-2.054;2023-08-21T08:11:36;101105.47;;;22.62;55.52
77023;BME280;65952;51.440;-2.054;2023-08-21T08:14:01;101101.81;;;22.68;55.45
77023;BME280;65952;51.440;-2.054;2023-08-21T08:16:27;101113.06;;;22.60;54.80
77023;BME280;65952;51.440;-2.054;2023-08-21T08:18:52;101103.50;;;22.51;55.50
77023;BME280;65952;51.440;-2.054;2023-08-21T08:21:18;101101.03;;;22.24;56.20
77023;BME280;65952;51.440;-2.054;2023-08-21T08:23:43;101100.81;;;22.26;56.18
77023;BME280;65952;51.440;-2.054;2023-08-21T08:26:09;101100.97;;;22.31;56.03
77023;BME280;65952;51.440;-2.054;2023-08-21T08:28:34;101098.44;;;22.11;56.67
77023;BME280;65952;51.440;-2.054;2023-08-21T08:31:00;101094.66;;;22.12;57.23
77023;BME280;65952;51.440;-2.054;2023-08-21T08:33:26;101100.34;;;22.10;56.98
77023;BME280;65952;51.440;-2.054;2023-08-21T08:35:51;101092.88;;;21.99;57.64
77023;BME280;65952;51.440;-2.054;2023-08-21T08:38:18;101102.56;;;21.95;57.42
77023;BME280;65952;51.440;-2.054;2023-08-21T08:40:45;101109.06;;;22.00;57.49
77023;BME280;65952;51.440;-2.054;2023-08-21T08:43:14;101122.09;;;21.98;57.18
77023;BME280;65952;51.440;-2.054;2023-08-21T08:45:40;101115.97;;;22.03;57.29
77023;BME280;65952;51.440;-2.054;2023-08-21T08:48:07;101124.06;;;21.91;58.14
77023;BME280;65952;51.440;-2.054;2023-08-21T08:50:33;101113.09;;;21.98;57.24
77023;BME280;65952;51.440;-2.054;2023-08-21T08:53:00;101127.41;;;21.93;58.53
77023;BME280;65952;51.440;-2.054;2023-08-21T08:55:26;101122.78;;;21.94;58.19
77023;BME280;65952;51.440;-2.054;2023-08-21T08:57:52;101124.75;;;21.86;58.24
77023;BME280;65952;51.440;-2.054;2023-08-21T09:00:19;101127.97;;;22.02;57.89
77023;BME280;65952;51.440;-2.054;2023-08-21T09:02:45;101120.47;;;22.16;57.00
77023;BME280;65952;51.440;-2.054;2023-08-21T09:05:10;101126.94;;;22.47;56.05
77023;BME280;65952;51.440;-2.054;2023-08-21T09:07:36;101118.63;;;22.53;56.02
77023;BME280;65952;51.440;-2.054;2023-08-21T09:10:01;101129.03;;;22.82;55.63
77023;BME280;65952;51.440;-2.054;2023-08-21T09:12:31;101121.66;;;22.64;53.96
77023;BME280;65952;51.440;-2.054;2023-08-21T09:14:58;101118.34;;;22.62;53.50
77023;BME280;65952;51.440;-2.054;2023-08-21T09:17:24;101103.31;;;22.83;53.64
77023;BME280;65952;51.440;-2.054;2023-08-21T09:19:51;101109.63;;;23.02;53.38
77023;BME280;65952;51.440;-2.054;2023-08-21T09:22:17;101106.78;;;23.09;51.85
77023;BME280;65952;51.440;-2.054;2023-08-21T09:27:35;101105.72;;;23.52;52.44
77023;BME280;65952;51.440;-2.054;2023-08-21T09:30:04;101115.34;;;23.85;50.50
77023;BME280;65952;51.440;-2.054;2023-08-21T09:32:29;101114.03;;;24.23;49.86
77023;BME280;65952;51.440;-2.054;2023-08-21T09:34:54;101117.03;;;24.10;50.03
77023;BME280;65952;51.440;-2.054;2023-08-21T09:37:20;101117.34;;;23.90;50.54
77023;BME280;65952;51.440;-2.054;2023-08-21T09:39:45;101107.19;;;23.66;51.14
77023;BME280;65952;51.440;-2.054;2023-08-21T09:42:11;101108.88;;;23.67;51.72
77023;BME280;65952;51.440;-2.054;2023-08-21T09:44:41;101102.09;;;23.70;51.36
77023;BME280;65952;51.440;-2.054;2023-08-21T09:47:12;101109.13;;;23.78;52.29
77023;BME280;65952;51.440;-2.054;2023-08-21T09:49:38;101111.03;;;23.89;52.13
77023;BME280;65952;51.440;-2.054;2023-08-21T09:52:08;101105.69;;;23.94;51.06
77023;BME280;65952;51.440;-2.054;2023-08-21T09:54:36;101105.22;;;24.09;50.51
77023;BME280;65952;51.440;-2.054;2023-08-21T09:57:03;101112.19;;;24.53;50.33
77023;BME280;65952;51.440;-2.054;2023-08-21T09:59:29;101108.72;;;25.10;48.70
77023;BME280;65952;51.440;-2.054;2023-08-21T10:01:58;101115.78;;;25.06;47.00
77023;BME280;65952;51.440;-2.054;2023-08-21T10:04:24;101111.91;;;24.78;48.07
77023;BME280;65952;51.440;-2.054;2023-08-21T10:06:51;101107.19;;;24.73;47.82
77023;BME280;65952;51.440;-2.054;2023-08-21T10:09:17;101111.72;;;24.67;48.86
77023;BME280;65952;51.440;-2.054;2023-08-21T10:11:43;101114.25;;;24.45;48.78
77023;BME280;65952;51.440;-2.054;2023-08-21T10:14:10;101107.00;;;24.15;49.44
77023;BME280;65952;51.440;-2.054;2023-08-21T10:16:35;101113.09;;;24.06;49.89
77023;BME280;65952;51.440;-2.054;2023-08-21T10:19:04;101107.38;;;24.07;50.83
77023;BME280;65952;51.440;-2.054;2023-08-21T10:21:37;101108.19;;;24.20;50.64
77023;BME280;65952;51.440;-2.054;2023-08-21T10:24:02;101114.66;;;24.25;49.28
77023;BME280;65952;51.440;-2.054;2023-08-21T10:26:28;101106.16;;;24.27;49.92
77023;BME280;65952;51.440;-2.054;2023-08-21T10:28:56;101096.63;;;24.29;50.41
77023;BME280;65952;51.440;-2.054;2023-08-21T10:32:00;101095.28;;;24.44;50.06
77023;BME280;65952;51.440;-2.054;2023-08-21T10:34:34;101080.44;;;24.69;49.99
77023;BME280;65952;51.440;-2.054;2023-08-21T10:37:04;101075.91;;;25.03;47.97
77023;BME280;65952;51.440;-2.054;2023-08-21T10:39:34;101077.00;;;25.19;48.33
77023;BME280;65952;51.440;-2.054;2023-08-21T10:44:46;101067.78;;;24.96;48.40
77023;BME280;65952;51.440;-2.054;2023-08-21T10:47:49;101064.94;;;24.74;48.64
77023;BME280;65952;51.440;-2.054;2023-08-21T10:50:08;101065.13;;;24.32;49.56
77023;BME280;65952;51.440;-2.054;2023-08-21T10:52:41;101063.50;;;24.72;49.44
77023;BME280;65952;51.440;-2.054;2023-08-21T10:55:07;101063.69;;;25.11;48.50
77023;BME280;65952;51.440;-2.054;2023-08-21T10:57:34;101061.38;;;24.91;47.03
77023;BME280;65952;51.440;-2.054;2023-08-21T11:00:04;101058.00;;;25.01;46.67
77023;BME280;65952;51.440;-2.054;2023-08-21T11:02:31;101059.44;;;25.20;47.30
77023;BME280;65952;51.440;-2.054;2023-08-21T11:04:58;101061.06;;;25.50;46.56
77023;BME280;65952;51.440;-2.054;2023-08-21T11:07:25;101066.13;;;25.58;45.59
77023;BME280;65952;51.440;-2.054;2023-08-21T11:09:51;101068.81;;;25.70;44.05
77023;BME280;65952;51.440;-2.054;2023-08-21T11:12:18;101076.56;;;25.73;44.36
77023;BME280;65952;51.440;-2.054;2023-08-21T11:14:45;101082.22;;;25.67;43.40
77023;BME280;65952;51.440;-2.054;2023-08-21T11:17:10;101078.44;;;25.90;43.27
77023;BME280;65952;51.440;-2.054;2023-08-21T11:19:37;101075.75;;;26.29;43.89
77023;BME280;65952;51.440;-2.054;2023-08-21T11:22:03;101075.34;;;26.42;43.26
77023;BME280;65952;51.440;-2.054;2023-08-21T11:24:47;101069.41;;;26.73;43.35
77023;BME280;65952;51.440;-2.054;2023-08-21T11:27:14;101080.09;;;26.69;43.43
77023;BME280;65952;51.440;-2.054;2023-08-21T11:29:48;101079.13;;;26.14;44.15
77023;BME280;65952;51.440;-2.054;2023-08-21T11:32:19;101072.81;;;25.62;44.91
77023;BME280;65952;51.440;-2.054;2023-08-21T11:34:48;101071.47;;;25.48;45.41
77023;BME280;65952;51.440;-2.054;2023-08-21T11:37:17;101061.41;;;25.54;45.33
77023;BME280;65952;51.440;-2.054;2023-08-21T11:39:45;101056.06;;;25.47;45.77
77023;BME280;65952;51.440;-2.054;2023-08-21T11:42:12;101058.00;;;25.63;45.78
77023;BME280;65952;51.440;-2.054;2023-08-21T11:44:49;101055.31;;;25.52;45.47
77023;BME280;65952;51.440;-2.054;2023-08-21T11:47:18;101060.75;;;25.63;44.97
77023;BME280;65952;51.440;-2.054;2023-08-21T11:49:45;101053.09;;;25.49;45.01
77023;BME280;65952;51.440;-2.054;2023-08-21T11:52:13;101049.91;;;25.57;47.07
77023;BME280;65952;51.440;-2.054;2023-08-21T11:54:39;101052.91;;;25.55;45.91
77023;BME280;65952;51.440;-2.054;2023-08-21T11:57:12;101057.66;;;25.60;45.32
77023;BME280;65952;51.440;-2.054;2023-08-21T11:59:38;101050.31;;;25.66;45.46
77023;BME280;65952;51.440;-2.054;2023-08-21T12:02:13;101050.91;;;25.68;45.87
77023;BME280;65952;51.440;-2.054;2023-08-21T12:04:39;101046.91;;;25.75;45.36
77023;BME280;65952;51.440;-2.054;2023-08-21T12:07:04;101044.47;;;25.79;45.49
77023;BME280;65952;51.440;-2.054;2023-08-21T12:09:30;101034.78;;;25.93;47.25
77023;BME280;65952;51.440;-2.054;2023-08-21T12:11:55;101038.91;;;25.74;45.90
77023;BME280;65952;51.440;-2.054;2023-08-21T12:14:22;101031.25;;;25.59;46.05
77023;BME280;65952;51.440;-2.054;2023-08-21T12:16:48;101040.41;;;25.64;46.02
77023;BME280;65952;51.440;-2.054;2023-08-21T12:19:13;101041.56;;;25.69;46.52
77023;BME280;65952;51.440;-2.054;2023-08-21T12:21:39;101032.31;;;25.58;46.47
77023;BME280;65952;51.440;-2.054;2023-08-21T12:24:05;101039.84;;;25.62;46.82
77023;BME280;65952;51.440;-2.054;2023-08-21T12:26:32;101033.25;;;25.63;47.79
77023;BME280;65952;51.440;-2.054;2023-08-21T12:28:57;101028.56;;;25.81;46.96
77023;BME280;65952;51.440;-2.054;2023-08-21T12:31:23;101033.41;;;25.57;46.63
77023;BME280;65952;51.440;-2.054;2023-08-21T12:33:48;101022.94;;;25.08;47.38
77023;BME280;65952;51.440;-2.054;2023-08-21T12:36:14;101019.16;;;25.26;47.27
77023;BME280;65952;51.440;-2.054;2023-08-21T12:38:39;101023.81;;;25.59;47.42
77023;BME280;65952;51.440;-2.054;2023-08-21T12:41:04;101015.38;;;25.83;46.20
77023;BME280;65952;51.440;-2.054;2023-08-21T12:43:30;101001.59;;;26.22;45.15
77023;BME280;65952;51.440;-2.054;2023-08-21T12:45:56;101002.06;;;26.86;46.32